sensor_id;sensor_type;location;lat;lon;timestamp;P1;durP1;ratioP1;P2;durP2;ratioP2
5221;SDS011;2630;52.036;8.514;2023-08-08T00:01:06;74.53;;;5.03;;
5221;SDS011;2630;52.036;8.514;2023-08-08T00:03:32;83.40;;;5.80;;
5221;SDS011;2630;52.036;8.514;2023-08-08T00:05:58;72.80;;;5.33;;
5221;SDS011;2630;52.036;8.514;2023-08-08T00:08:24;74.50;;;5.23;;
5221;SDS011;2630;52.036;8.514;2023-08-08T00:10:49;76.00;;;5.17;;
5221;SDS011;2630;52.036;8.514;2023-08-08T00:13:15;79.33;;;5.57;;
5221;SDS011;2630;52.036;8.514;2023-08-08T00:15:41;72.80;;;5.07;;
5221;SDS011;2630;52.036;8.514;2023-08-08T00:18:07;72.67;;;5.23;;
5221;SDS011;2630;52.036;8.514;2023-08-08T00:20:33;78.93;;;5.57;;
5221;SDS011;2630;52.036;8.514;2023-08-08T00:22:59;72.97;;;5.53;;
5221;SDS011;2630;52.036;8.514;2023-08-08T00:25:25;72.97;;;5.37;;
5221;SDS011;2630;52.036;8.514;2023-08-08T00:27:51;72.77;;;5.23;;
5221;SDS011;2630;52.036;8.514;2023-08-08T00:30:17;73.03;;;5.70;;
5221;SDS011;2630;52.036;8.514;2023-08-08T00:32:43;73.73;;;5.43;;
5221;SDS011;2630;52.036;8.514;2023-08-08T00:35:09;72.77;;;5.30;;
5221;SDS011;2630;52.036;8.514;2023-08-08T00:37:34;78.67;;;5.60;;
5221;SDS011;2630;52.036;8.514;2023-08-08T00:40:00;73.00;;;6.00;;
5221;SDS011;2630;52.036;8.514;2023-08-08T00:42:26;72.60;;;5.23;;
5221;SDS011;2630;52.036;8.514;2023-08-08T00:44:51;76.83;;;5.60;;
5221;SDS011;2630;52.036;8.514;2023-08-08T00:47:17;72.70;;;5.30;;
5221;SDS011;2630;52.036;8.514;2023-08-08T00:49:43;75.37;;;6.00;;
5221;SDS011;2630;52.036;8.514;2023-08-08T00:52:11;72.30;;;5.13;;
5221;SDS011;2630;52.036;8.514;2023-08-08T00:54:37;73.13;;;5.80;;
5221;SDS011;2630;52.036;8.514;2023-08-08T00:57:03;78.53;;;5.80;;
5221;SDS011;2630;52.036;8.514;2023-08-08T00:59:29;74.80;;;5.33;;
5221;SDS011;2630;52.036;8.514;2023-08-08T01:01:56;72.80;;;5.37;;
5221;SDS011;2630;52.036;8.514;2023-08-08T01:04:22;72.50;;;5.33;;
5221;SDS011;2630;52.036;8.514;2023-08-08T01:06:55;77.90;;;5.37;;
5221;SDS011;2630;52.036;8.514;2023-08-08T01:09:32;72.80;;;5.07;;
5221;SDS011;2630;52.036;8.514;2023-08-08T01:12:02;73.77;;;5.40;;
5221;SDS011;2630;52.036;8.514;2023-08-08T01:14:28;72.57;;;5.23;;
5221;SDS011;2630;52.036;8.514;2023-08-08T01:16:55;73.40;;;5.60;;
5221;SDS011;2630;52.036;8.514;2023-08-08T01:19:28;90.33;;;6.30;;
5221;SDS011;2630;52.036;8.514;2023-08-08T01:21:57;78.00;;;5.70;;
5221;SDS011;2630;52.036;8.514;2023-08-08T01:24:26;72.50;;;5.43;;
5221;SDS011;2630;52.036;8.514;2023-08-08T01:26:57;77.80;;;5.70;;
5221;SDS011;2630;52.036;8.514;2023-08-08T01:29:24;94.03;;;6.60;;
5221;SDS011;2630;52.036;8.514;2023-08-08T01:31:50;72.80;;;5.70;;
5221;SDS011;2630;52.036;8.514;2023-08-08T01:34:16;81.83;;;5.67;;
5221;SDS011;2630;52.036;8.514;2023-08-08T01:36:46;72.57;;;4.97;;
5221;SDS011;2630;52.036;8.514;2023-08-08T01:39:20;78.70;;;5.83;;
5221;SDS011;2630;52.036;8.514;2023-08-08T01:41:50;72.30;;;4.60;;
5221;SDS011;2630;52.036;8.514;2023-08-08T01:44:17;72.67;;;5.57;;
5221;SDS011;2630;52.036;8.514;2023-08-08T01:46:43;92.90;;;6.20;;
5221;SDS011;2630;52.036;8.514;2023-08-08T01:49:09;76.33;;;5.17;;
5221;SDS011;2630;52.036;8.514;2023-08-08T01:51:38;73.30;;;5.70;;
5221;SDS011;2630;52.036;8.514;2023-08-08T01:54:04;79.33;;;5.27;;
5221;SDS011;2630;52.036;8.514;2023-08-08T01:56:30;79.40;;;5.90;;
5221;SDS011;2630;52.036;8.514;2023-08-08T01:58:56;72.70;;;5.30;;
5221;SDS011;2630;52.036;8.514;2023-08-08T02:01:22;82.83;;;6.10;;
5221;SDS011;2630;52.036;8.514;2023-08-08T02:03:47;72.70;;;5.57;;
5221;SDS011;2630;52.036;8.514;2023-08-08T02:06:13;97.43;;;6.70;;
5221;SDS011;2630;52.036;8.514;2023-08-08T02:08:40;73.80;;;5.37;;
5221;SDS011;2630;52.036;8.514;2023-08-08T02:11:06;72.70;;;5.37;;
5221;SDS011;2630;52.036;8.514;2023-08-08T02:13:32;75.53;;;5.60;;
5221;SDS011;2630;52.036;8.514;2023-08-08T02:15:58;84.03;;;5.97;;
5221;SDS011;2630;52.036;8.514;2023-08-08T02:18:24;81.60;;;5.83;;
5221;SDS011;2630;52.036;8.514;2023-08-08T02:20:50;112.33;;;16.47;;
5221;SDS011;2630;52.036;8.514;2023-08-08T02:23:16;82.10;;;5.63;;
5221;SDS011;2630;52.036;8.514;2023-08-08T02:25:42;72.60;;;5.13;;
5221;SDS011;2630;52.036;8.514;2023-08-08T02:28:08;115.13;;;6.90;;
5221;SDS011;2630;52.036;8.514;2023-08-08T02:30:34;81.20;;;5.53;;
5221;SDS011;2630;52.036;8.514;2023-08-08T02:33:00;75.30;;;5.60;;
5221;SDS011;2630;52.036;8.514;2023-08-08T02:35:26;75.53;;;5.70;;
5221;SDS011;2630;52.036;8.514;2023-08-08T02:37:52;76.40;;;5.60;;
5221;SDS011;2630;52.036;8.514;2023-08-08T02:40:18;75.20;;;5.53;;
5221;SDS011;2630;52.036;8.514;2023-08-08T02:42:44;75.07;;;6.10;;
5221;SDS011;2630;52.036;8.514;2023-08-08T02:45:10;72.50;;;5.10;;
5221;SDS011;2630;52.036;8.514;2023-08-08T02:47:36;72.27;;;5.13;;
5221;SDS011;2630;52.036;8.514;2023-08-08T02:50:02;72.57;;;4.93;;
5221;SDS011;2630;52.036;8.514;2023-08-08T02:52:28;72.80;;;5.57;;
5221;SDS011;2630;52.036;8.514;2023-08-08T02:54:53;72.67;;;5.50;;
5221;SDS011;2630;52.036;8.514;2023-08-08T02:57:20;72.57;;;4.90;;
5221;SDS011;2630;52.036;8.514;2023-08-08T02:59:45;83.77;;;5.80;;
5221;SDS011;2630;52.036;8.514;2023-08-08T03:02:11;72.57;;;5.23;;
5221;SDS011;2630;52.036;8.514;2023-08-08T03:04:36;73.67;;;5.67;;
5221;SDS011;2630;52.036;8.514;2023-08-08T03:07:02;73.63;;;5.43;;
5221;SDS011;2630;52.036;8.514;2023-08-08T03:09:29;101.47;;;7.37;;
5221;SDS011;2630;52.036;8.514;2023-08-08T03:11:55;81.80;;;6.10;;
5221;SDS011;2630;52.036;8.514;2023-08-08T03:14:20;72.80;;;5.20;;
5221;SDS011;2630;52.036;8.514;2023-08-08T03:16:46;78.93;;;5.33;;
5221;SDS011;2630;52.036;8.514;2023-08-08T03:19:12;75.47;;;5.67;;
5221;SDS011;2630;52.036;8.514;2023-08-08T03:21:37;73.27;;;5.23;;
5221;SDS011;2630;52.036;8.514;2023-08-08T03:24:03;73.10;;;5.33;;
5221;SDS011;2630;52.036;8.514;2023-08-08T03:26:29;89.73;;;5.63;;
5221;SDS011;2630;52.036;8.514;2023-08-08T03:28:55;72.30;;;4.60;;
5221;SDS011;2630;52.036;8.514;2023-08-08T03:31:21;73.93;;;5.27;;
5221;SDS011;2630;52.036;8.514;2023-08-08T03:33:47;73.53;;;5.67;;
5221;SDS011;2630;52.036;8.514;2023-08-08T03:36:13;74.00;;;5.53;;
5221;SDS011;2630;52.036;8.514;2023-08-08T03:38:39;80.30;;;5.20;;
5221;SDS011;2630;52.036;8.514;2023-08-08T03:41:09;72.80;;;5.53;;
5221;SDS011;2630;52.036;8.514;2023-08-08T03:43:35;75.47;;;5.60;;
5221;SDS011;2630;52.036;8.514;2023-08-08T03:46:01;72.80;;;5.00;;
5221;SDS011;2630;52.036;8.514;2023-08-08T03:48:27;72.77;;;5.40;;
5221;SDS011;2630;52.036;8.514;2023-08-08T03:50:53;76.00;;;4.70;;
5221;SDS011;2630;52.036;8.514;2023-08-08T03:53:19;87.43;;;6.30;;
5221;SDS011;2630;52.036;8.514;2023-08-08T03:55:44;72.60;;;5.07;;
5221;SDS011;2630;52.036;8.514;2023-08-08T03:58:10;73.70;;;5.20;;
5221;SDS011;2630;52.036;8.514;2023-08-08T04:00:36;72.73;;;5.23;;
5221;SDS011;2630;52.036;8.514;2023-08-08T04:03:04;72.60;;;5.33;;
5221;SDS011;2630;52.036;8.514;2023-08-08T04:05:30;72.67;;;5.13;;
5221;SDS011;2630;52.036;8.514;2023-08-08T04:07:56;72.67;;;5.07;;
5221;SDS011;2630;52.036;8.514;2023-08-08T04:10:22;75.20;;;4.93;;
5221;SDS011;2630;52.036;8.514;2023-08-08T04:12:48;79.63;;;5.17;;
5221;SDS011;2630;52.036;8.514;2023-08-08T04:15:13;78.00;;;5.60;;
5221;SDS011;2630;52.036;8.514;2023-08-08T04:17:39;73.03;;;5.90;;
5221;SDS011;2630;52.036;8.514;2023-08-08T04:20:06;90.03;;;5.97;;
5221;SDS011;2630;52.036;8.514;2023-08-08T04:22:32;81.33;;;6.00;;
5221;SDS011;2630;52.036;8.514;2023-08-08T04:24:57;72.80;;;5.23;;
5221;SDS011;2630;52.036;8.514;2023-08-08T04:27:23;72.77;;;5.50;;
5221;SDS011;2630;52.036;8.514;2023-08-08T04:29:49;72.77;;;5.30;;
5221;SDS011;2630;52.036;8.514;2023-08-08T04:32:15;89.67;;;6.30;;
5221;SDS011;2630;52.036;8.514;2023-08-08T04:34:41;82.53;;;5.63;;
5221;SDS011;2630;52.036;8.514;2023-08-08T04:37:07;77.10;;;5.20;;
5221;SDS011;2630;52.036;8.514;2023-08-08T04:39:33;73.30;;;5.70;;
5221;SDS011;2630;52.036;8.514;2023-08-08T04:41:59;77.17;;;5.43;;
5221;SDS011;2630;52.036;8.514;2023-08-08T04:44:25;72.77;;;5.47;;
5221;SDS011;2630;52.036;8.514;2023-08-08T04:46:51;78.50;;;5.20;;
5221;SDS011;2630;52.036;8.514;2023-08-08T04:49:18;78.10;;;5.90;;
5221;SDS011;2630;52.036;8.514;2023-08-08T04:51:44;72.60;;;5.30;;
5221;SDS011;2630;52.036;8.514;2023-08-08T04:54:10;74.27;;;5.43;;
5221;SDS011;2630;52.036;8.514;2023-08-08T04:56:35;76.10;;;5.03;;
5221;SDS011;2630;52.036;8.514;2023-08-08T04:59:01;72.87;;;5.20;;
5221;SDS011;2630;52.036;8.514;2023-08-08T05:01:27;82.53;;;5.37;;
5221;SDS011;2630;52.036;8.514;2023-08-08T05:03:53;72.90;;;5.47;;
5221;SDS011;2630;52.036;8.514;2023-08-08T05:06:19;72.87;;;5.33;;
5221;SDS011;2630;52.036;8.514;2023-08-08T05:08:49;84.43;;;5.90;;
5221;SDS011;2630;52.036;8.514;2023-08-08T05:11:16;73.77;;;7.70;;
5221;SDS011;2630;52.036;8.514;2023-08-08T05:13:42;74.70;;;5.20;;
5221;SDS011;2630;52.036;8.514;2023-08-08T05:16:08;72.77;;;5.17;;
5221;SDS011;2630;52.036;8.514;2023-08-08T05:18:34;79.73;;;5.50;;
5221;SDS011;2630;52.036;8.514;2023-08-08T05:21:00;75.27;;;5.23;;
5221;SDS011;2630;52.036;8.514;2023-08-08T05:23:26;76.20;;;5.33;;
5221;SDS011;2630;52.036;8.514;2023-08-08T05:25:51;85.07;;;5.50;;
5221;SDS011;2630;52.036;8.514;2023-08-08T05:28:17;94.37;;;6.33;;
5221;SDS011;2630;52.036;8.514;2023-08-08T05:30:44;74.23;;;5.67;;
5221;SDS011;2630;52.036;8.514;2023-08-08T05:33:10;89.60;;;5.90;;
5221;SDS011;2630;52.036;8.514;2023-08-08T05:35:39;90.43;;;6.60;;
5221;SDS011;2630;52.036;8.514;2023-08-08T05:38:05;75.07;;;5.83;;
5221;SDS011;2630;52.036;8.514;2023-08-08T05:40:31;92.60;;;6.80;;
5221;SDS011;2630;52.036;8.514;2023-08-08T05:42:59;72.40;;;4.97;;
5221;SDS011;2630;52.036;8.514;2023-08-08T05:45:25;74.10;;;5.30;;
5221;SDS011;2630;52.036;8.514;2023-08-08T05:47:51;80.50;;;6.10;;
5221;SDS011;2630;52.036;8.514;2023-08-08T05:50:17;83.17;;;6.10;;
5221;SDS011;2630;52.036;8.514;2023-08-08T05:52:44;102.90;;;7.07;;
5221;SDS011;2630;52.036;8.514;2023-08-08T05:55:10;72.97;;;5.20;;
5221;SDS011;2630;52.036;8.514;2023-08-08T05:57:35;72.90;;;5.30;;
5221;SDS011;2630;52.036;8.514;2023-08-08T06:00:03;72.63;;;4.93;;
5221;SDS011;2630;52.036;8.514;2023-08-08T06:02:29;104.47;;;7.10;;
5221;SDS011;2630;52.036;8.514;2023-08-08T06:04:55;72.90;;;5.53;;
5221;SDS011;2630;52.036;8.514;2023-08-08T06:07:21;74.70;;;5.83;;
5221;SDS011;2630;52.036;8.514;2023-08-08T06:09:46;72.60;;;5.50;;
5221;SDS011;2630;52.036;8.514;2023-08-08T06:12:12;73.13;;;5.37;;
5221;SDS011;2630;52.036;8.514;2023-08-08T06:14:38;76.50;;;5.27;;
5221;SDS011;2630;52.036;8.514;2023-08-08T06:17:04;72.60;;;5.47;;
5221;SDS011;2630;52.036;8.514;2023-08-08T06:19:30;81.70;;;6.20;;
5221;SDS011;2630;52.036;8.514;2023-08-08T06:21:56;72.80;;;5.60;;
5221;SDS011;2630;52.036;8.514;2023-08-08T06:24:22;87.60;;;6.57;;
5221;SDS011;2630;52.036;8.514;2023-08-08T06:26:48;83.97;;;5.80;;
5221;SDS011;2630;52.036;8.514;2023-08-08T06:29:14;78.50;;;5.40;;
5221;SDS011;2630;52.036;8.514;2023-08-08T06:31:40;75.23;;;5.30;;
5221;SDS011;2630;52.036;8.514;2023-08-08T06:34:06;72.47;;;5.17;;
5221;SDS011;2630;52.036;8.514;2023-08-08T06:36:32;75.23;;;8.30;;
5221;SDS011;2630;52.036;8.514;2023-08-08T06:38:58;72.73;;;5.03;;
5221;SDS011;2630;52.036;8.514;2023-08-08T06:41:24;72.57;;;5.23;;
5221;SDS011;2630;52.036;8.514;2023-08-08T06:43:51;91.43;;;6.63;;
5221;SDS011;2630;52.036;8.514;2023-08-08T06:46:16;74.07;;;5.67;;
5221;SDS011;2630;52.036;8.514;2023-08-08T06:48:45;72.40;;;5.17;;
5221;SDS011;2630;52.036;8.514;2023-08-08T06:51:11;72.80;;;5.90;;
5221;SDS011;2630;52.036;8.514;2023-08-08T06:53:37;72.60;;;5.43;;
5221;SDS011;2630;52.036;8.514;2023-08-08T06:56:03;75.20;;;5.77;;
5221;SDS011;2630;52.036;8.514;2023-08-08T06:58:29;79.13;;;5.60;;
5221;SDS011;2630;52.036;8.514;2023-08-08T07:00:55;78.20;;;5.90;;
5221;SDS011;2630;52.036;8.514;2023-08-08T07:03:20;72.80;;;5.70;;
5221;SDS011;2630;52.036;8.514;2023-08-08T07:05:46;76.53;;;5.90;;
5221;SDS011;2630;52.036;8.514;2023-08-08T07:08:16;89.47;;;7.50;;
5221;SDS011;2630;52.036;8.514;2023-08-08T07:10:43;77.90;;;5.80;;
5221;SDS011;2630;52.036;8.514;2023-08-08T07:13:09;97.03;;;6.33;;
5221;SDS011;2630;52.036;8.514;2023-08-08T07:15:35;77.73;;;6.33;;
5221;SDS011;2630;52.036;8.514;2023-08-08T07:18:02;75.33;;;5.93;;
5221;SDS011;2630;52.036;8.514;2023-08-08T07:20:28;76.50;;;6.10;;
5221;SDS011;2630;52.036;8.514;2023-08-08T07:22:54;74.90;;;5.33;;
5221;SDS011;2630;52.036;8.514;2023-08-08T07:25:20;72.50;;;5.47;;
5221;SDS011;2630;52.036;8.514;2023-08-08T07:27:46;76.23;;;6.00;;
5221;SDS011;2630;52.036;8.514;2023-08-08T07:30:12;74.90;;;5.90;;
5221;SDS011;2630;52.036;8.514;2023-08-08T07:32:38;79.03;;;6.10;;
5221;SDS011;2630;52.036;8.514;2023-08-08T07:35:04;89.63;;;6.27;;
5221;SDS011;2630;52.036;8.514;2023-08-08T07:37:31;79.87;;;5.50;;
5221;SDS011;2630;52.036;8.514;2023-08-08T07:39:58;73.60;;;5.70;;
5221;SDS011;2630;52.036;8.514;2023-08-08T07:42:23;75.17;;;5.43;;
5221;SDS011;2630;52.036;8.514;2023-08-08T07:44:49;82.83;;;6.20;;
5221;SDS011;2630;52.036;8.514;2023-08-08T07:47:15;81.23;;;5.83;;
5221;SDS011;2630;52.036;8.514;2023-08-08T07:49:41;83.73;;;6.50;;
5221;SDS011;2630;52.036;8.514;2023-08-08T07:52:06;73.47;;;5.70;;
5221;SDS011;2630;52.036;8.514;2023-08-08T07:54:33;72.73;;;5.53;;
5221;SDS011;2630;52.036;8.514;2023-08-08T07:56:59;93.90;;;6.63;;
5221;SDS011;2630;52.036;8.514;2023-08-08T07:59:25;91.23;;;6.70;;
5221;SDS011;2630;52.036;8.514;2023-08-08T08:01:51;74.40;;;5.93;;
5221;SDS011;2630;52.036;8.514;2023-08-08T08:04:17;72.60;;;5.67;;
5221;SDS011;2630;52.036;8.514;2023-08-08T08:06:43;77.17;;;5.97;;
5221;SDS011;2630;52.036;8.514;2023-08-08T08:09:09;72.83;;;5.80;;
5221;SDS011;2630;52.036;8.514;2023-08-08T08:11:35;73.03;;;5.53;;
5221;SDS011;2630;52.036;8.514;2023-08-08T08:14:01;72.80;;;5.73;;
5221;SDS011;2630;52.036;8.514;2023-08-08T08:16:27;86.83;;;7.03;;
5221;SDS011;2630;52.036;8.514;2023-08-08T08:18:53;72.90;;;5.70;;
5221;SDS011;2630;52.036;8.514;2023-08-08T08:21:19;74.07;;;5.30;;
5221;SDS011;2630;52.036;8.514;2023-08-08T08:23:45;75.53;;;5.60;;
5221;SDS011;2630;52.036;8.514;2023-08-08T08:26:11;73.83;;;5.13;;
5221;SDS011;2630;52.036;8.514;2023-08-08T08:28:37;72.67;;;4.93;;
5221;SDS011;2630;52.036;8.514;2023-08-08T08:31:05;75.97;;;5.97;;
5221;SDS011;2630;52.036;8.514;2023-08-08T08:33:32;72.80;;;5.40;;
5221;SDS011;2630;52.036;8.514;2023-08-08T08:35:58;73.97;;;5.33;;
5221;SDS011;2630;52.036;8.514;2023-08-08T08:38:24;76.47;;;6.70;;
5221;SDS011;2630;52.036;8.514;2023-08-08T08:40:49;82.70;;;6.40;;
5221;SDS011;2630;52.036;8.514;2023-08-08T08:43:19;79.57;;;6.03;;
5221;SDS011;2630;52.036;8.514;2023-08-08T08:45:47;72.90;;;5.87;;
5221;SDS011;2630;52.036;8.514;2023-08-08T08:48:16;78.20;;;5.40;;
5221;SDS011;2630;52.036;8.514;2023-08-08T08:50:44;76.80;;;6.33;;
5221;SDS011;2630;52.036;8.514;2023-08-08T08:53:12;79.37;;;5.43;;
5221;SDS011;2630;52.036;8.514;2023-08-08T08:55:38;76.90;;;5.63;;
5221;SDS011;2630;52.036;8.514;2023-08-08T08:58:05;83.90;;;6.27;;
5221;SDS011;2630;52.036;8.514;2023-08-08T09:00:31;75.80;;;5.63;;
5221;SDS011;2630;52.036;8.514;2023-08-08T09:03:00;135.63;;;9.27;;
5221;SDS011;2630;52.036;8.514;2023-08-08T09:05:26;113.07;;;7.83;;
5221;SDS011;2630;52.036;8.514;2023-08-08T09:07:52;112.40;;;7.80;;
5221;SDS011;2630;52.036;8.514;2023-08-08T09:10:18;103.03;;;7.60;;
5221;SDS011;2630;52.036;8.514;2023-08-08T09:12:45;72.83;;;5.70;;
5221;SDS011;2630;52.036;8.514;2023-08-08T09:15:11;72.57;;;5.17;;
5221;SDS011;2630;52.036;8.514;2023-08-08T09:17:41;72.60;;;5.37;;
5221;SDS011;2630;52.036;8.514;2023-08-08T09:20:08;91.77;;;6.80;;
5221;SDS011;2630;52.036;8.514;2023-08-08T09:22:35;81.80;;;6.20;;
5221;SDS011;2630;52.036;8.514;2023-08-08T09:25:02;97.33;;;6.47;;
5221;SDS011;2630;52.036;8.514;2023-08-08T09:27:28;72.27;;;6.10;;
5221;SDS011;2630;52.036;8.514;2023-08-08T09:29:54;75.13;;;5.60;;
5221;SDS011;2630;52.036;8.514;2023-08-08T09:32:20;73.87;;;5.77;;
5221;SDS011;2630;52.036;8.514;2023-08-08T09:34:46;82.03;;;6.00;;
5221;SDS011;2630;52.036;8.514;2023-08-08T09:37:12;96.63;;;7.10;;
5221;SDS011;2630;52.036;8.514;2023-08-08T09:39:39;81.60;;;5.93;;
5221;SDS011;2630;52.036;8.514;2023-08-08T09:42:05;126.17;;;8.47;;
5221;SDS011;2630;52.036;8.514;2023-08-08T09:44:33;108.27;;;7.90;;
5221;SDS011;2630;52.036;8.514;2023-08-08T09:47:00;140.17;;;9.53;;
5221;SDS011;2630;52.036;8.514;2023-08-08T09:49:26;145.67;;;9.97;;
5221;SDS011;2630;52.036;8.514;2023-08-08T09:51:52;136.00;;;8.83;;
5221;SDS011;2630;52.036;8.514;2023-08-08T09:54:18;132.77;;;9.20;;
5221;SDS011;2630;52.036;8.514;2023-08-08T09:56:45;128.17;;;8.67;;
5221;SDS011;2630;52.036;8.514;2023-08-08T09:59:11;76.50;;;5.80;;
5221;SDS011;2630;52.036;8.514;2023-08-08T10:01:38;124.30;;;8.77;;
5221;SDS011;2630;52.036;8.514;2023-08-08T10:04:06;135.67;;;9.33;;
5221;SDS011;2630;52.036;8.514;2023-08-08T10:06:32;128.13;;;8.87;;
5221;SDS011;2630;52.036;8.514;2023-08-08T10:08:58;72.90;;;5.10;;
5221;SDS011;2630;52.036;8.514;2023-08-08T10:11:24;130.07;;;9.07;;
5221;SDS011;2630;52.036;8.514;2023-08-08T10:13:52;119.73;;;8.83;;
5221;SDS011;2630;52.036;8.514;2023-08-08T10:16:18;111.77;;;8.80;;
5221;SDS011;2630;52.036;8.514;2023-08-08T10:18:45;114.80;;;8.40;;
5221;SDS011;2630;52.036;8.514;2023-08-08T10:21:11;98.40;;;7.90;;
5221;SDS011;2630;52.036;8.514;2023-08-08T10:23:38;101.10;;;7.70;;
5221;SDS011;2630;52.036;8.514;2023-08-08T10:26:05;103.37;;;7.77;;
5221;SDS011;2630;52.036;8.514;2023-08-08T10:28:32;107.30;;;7.53;;
5221;SDS011;2630;52.036;8.514;2023-08-08T10:30:59;114.20;;;8.00;;
5221;SDS011;2630;52.036;8.514;2023-08-08T10:33:27;83.80;;;6.20;;
5221;SDS011;2630;52.036;8.514;2023-08-08T10:36:04;83.20;;;6.20;;
5221;SDS011;2630;52.036;8.514;2023-08-08T10:38:44;82.33;;;5.83;;
5221;SDS011;2630;52.036;8.514;2023-08-08T10:41:18;72.57;;;5.60;;
5221;SDS011;2630;52.036;8.514;2023-08-08T10:43:55;73.07;;;5.57;;
5221;SDS011;2630;52.036;8.514;2023-08-08T10:46:26;84.00;;;5.70;;
5221;SDS011;2630;52.036;8.514;2023-08-08T10:48:55;79.43;;;5.53;;
5221;SDS011;2630;52.036;8.514;2023-08-08T10:51:31;85.10;;;6.70;;
5221;SDS011;2630;52.036;8.514;2023-08-08T10:54:09;83.00;;;5.50;;
5221;SDS011;2630;52.036;8.514;2023-08-08T10:56:52;80.63;;;6.20;;
5221;SDS011;2630;52.036;8.514;2023-08-08T10:59:20;99.77;;;6.73;;
5221;SDS011;2630;52.036;8.514;2023-08-08T11:02:00;98.33;;;6.17;;
5221;SDS011;2630;52.036;8.514;2023-08-08T11:04:26;130.77;;;8.30;;
5221;SDS011;2630;52.036;8.514;2023-08-08T11:06:54;113.07;;;7.60;;
5221;SDS011;2630;52.036;8.514;2023-08-08T11:09:20;127.43;;;8.67;;
5221;SDS011;2630;52.036;8.514;2023-08-08T11:11:46;105.50;;;7.40;;
5221;SDS011;2630;52.036;8.514;2023-08-08T11:14:22;116.57;;;8.17;;
5221;SDS011;2630;52.036;8.514;2023-08-08T11:16:49;120.13;;;8.20;;
5221;SDS011;2630;52.036;8.514;2023-08-08T11:19:16;147.40;;;9.33;;
5221;SDS011;2630;52.036;8.514;2023-08-08T11:21:44;111.07;;;7.57;;
5221;SDS011;2630;52.036;8.514;2023-08-08T11:24:11;82.90;;;5.80;;
5221;SDS011;2630;52.036;8.514;2023-08-08T11:26:37;92.93;;;6.50;;
5221;SDS011;2630;52.036;8.514;2023-08-08T11:29:05;132.13;;;9.00;;
5221;SDS011;2630;52.036;8.514;2023-08-08T11:31:31;114.03;;;8.20;;
5221;SDS011;2630;52.036;8.514;2023-08-08T11:33:58;102.27;;;7.33;;
5221;SDS011;2630;52.036;8.514;2023-08-08T11:36:24;136.57;;;9.50;;
5221;SDS011;2630;52.036;8.514;2023-08-08T11:38:51;85.10;;;5.90;;
5221;SDS011;2630;52.036;8.514;2023-08-08T11:41:18;125.17;;;8.47;;
5221;SDS011;2630;52.036;8.514;2023-08-08T11:43:45;166.13;;;9.03;;
5221;SDS011;2630;52.036;8.514;2023-08-08T11:46:12;96.80;;;5.90;;
5221;SDS011;2630;52.036;8.514;2023-08-08T11:48:39;117.43;;;8.00;;
5221;SDS011;2630;52.036;8.514;2023-08-08T11:51:05;117.93;;;8.43;;
5221;SDS011;2630;52.036;8.514;2023-08-08T11:53:31;120.60;;;8.83;;
5221;SDS011;2630;52.036;8.514;2023-08-08T11:55:58;108.47;;;8.23;;
5221;SDS011;2630;52.036;8.514;2023-08-08T11:58:24;116.73;;;7.60;;
5221;SDS011;2630;52.036;8.514;2023-08-08T12:00:51;116.93;;;8.13;;
5221;SDS011;2630;52.036;8.514;2023-08-08T12:03:20;124.97;;;8.27;;
5221;SDS011;2630;52.036;8.514;2023-08-08T12:05:46;98.90;;;7.40;;
5221;SDS011;2630;52.036;8.514;2023-08-08T12:08:12;126.87;;;9.10;;
5221;SDS011;2630;52.036;8.514;2023-08-08T12:10:40;119.83;;;8.43;;
5221;SDS011;2630;52.036;8.514;2023-08-08T12:13:13;171.13;;;10.17;;
5221;SDS011;2630;52.036;8.514;2023-08-08T12:15:39;123.03;;;8.53;;
5221;SDS011;2630;52.036;8.514;2023-08-08T12:18:05;72.60;;;5.80;;
5221;SDS011;2630;52.036;8.514;2023-08-08T12:20:31;122.10;;;8.53;;
5221;SDS011;2630;52.036;8.514;2023-08-08T12:22:57;123.77;;;8.23;;
5221;SDS011;2630;52.036;8.514;2023-08-08T12:25:23;104.50;;;7.73;;
5221;SDS011;2630;52.036;8.514;2023-08-08T12:27:49;101.87;;;7.73;;
5221;SDS011;2630;52.036;8.514;2023-08-08T12:30:15;100.43;;;7.40;;
5221;SDS011;2630;52.036;8.514;2023-08-08T12:32:41;83.93;;;6.40;;
5221;SDS011;2630;52.036;8.514;2023-08-08T12:35:06;81.10;;;6.00;;
5221;SDS011;2630;52.036;8.514;2023-08-08T12:37:33;80.20;;;5.40;;
5221;SDS011;2630;52.036;8.514;2023-08-08T12:39:58;72.50;;;5.27;;
5221;SDS011;2630;52.036;8.514;2023-08-08T12:42:24;80.30;;;5.70;;
5221;SDS011;2630;52.036;8.514;2023-08-08T12:44:50;71.93;;;5.80;;
5221;SDS011;2630;52.036;8.514;2023-08-08T12:47:18;72.73;;;5.73;;
5221;SDS011;2630;52.036;8.514;2023-08-08T12:49:46;72.30;;;5.43;;
5221;SDS011;2630;52.036;8.514;2023-08-08T12:52:12;81.00;;;6.23;;
5221;SDS011;2630;52.036;8.514;2023-08-08T12:54:37;74.10;;;5.40;;
5221;SDS011;2630;52.036;8.514;2023-08-08T12:57:03;72.67;;;5.43;;
5221;SDS011;2630;52.036;8.514;2023-08-08T12:59:29;87.70;;;6.03;;
5221;SDS011;2630;52.036;8.514;2023-08-08T13:01:55;76.10;;;6.63;;
5221;SDS011;2630;52.036;8.514;2023-08-08T13:04:21;94.03;;;7.00;;
5221;SDS011;2630;52.036;8.514;2023-08-08T13:06:47;99.03;;;8.13;;
5221;SDS011;2630;52.036;8.514;2023-08-08T13:09:13;146.60;;;10.37;;
5221;SDS011;2630;52.036;8.514;2023-08-08T13:11:40;116.95;;;7.85;;
5221;SDS011;2630;52.036;8.514;2023-08-08T13:14:06;101.10;;;7.80;;
5221;SDS011;2630;52.036;8.514;2023-08-08T13:16:32;109.60;;;8.53;;
5221;SDS011;2630;52.036;8.514;2023-08-08T13:18:58;104.77;;;7.87;;
5221;SDS011;2630;52.036;8.514;2023-08-08T13:21:24;80.47;;;5.90;;
5221;SDS011;2630;52.036;8.514;2023-08-08T13:23:50;90.40;;;6.63;;
5221;SDS011;2630;52.036;8.514;2023-08-08T13:26:15;110.83;;;7.60;;
5221;SDS011;2630;52.036;8.514;2023-08-08T13:28:41;141.10;;;9.63;;
5221;SDS011;2630;52.036;8.514;2023-08-08T13:31:08;83.10;;;6.23;;
5221;SDS011;2630;52.036;8.514;2023-08-08T13:33:34;100.23;;;7.30;;
5221;SDS011;2630;52.036;8.514;2023-08-08T13:36:00;105.80;;;7.93;;
5221;SDS011;2630;52.036;8.514;2023-08-08T13:38:26;81.93;;;6.60;;
5221;SDS011;2630;52.036;8.514;2023-08-08T13:40:52;111.03;;;7.90;;
5221;SDS011;2630;52.036;8.514;2023-08-08T13:43:18;115.40;;;8.10;;
5221;SDS011;2630;52.036;8.514;2023-08-08T13:45:45;142.00;;;9.73;;
5221;SDS011;2630;52.036;8.514;2023-08-08T13:48:11;109.83;;;7.77;;
5221;SDS011;2630;52.036;8.514;2023-08-08T13:50:37;97.63;;;7.87;;
5221;SDS011;2630;52.036;8.514;2023-08-08T13:53:03;109.43;;;8.00;;
5221;SDS011;2630;52.036;8.514;2023-08-08T13:55:29;105.10;;;7.23;;
5221;SDS011;2630;52.036;8.514;2023-08-08T13:57:55;117.33;;;8.70;;
5221;SDS011;2630;52.036;8.514;2023-08-08T14:00:22;89.97;;;6.43;;
5221;SDS011;2630;52.036;8.514;2023-08-08T14:02:48;107.47;;;7.97;;
5221;SDS011;2630;52.036;8.514;2023-08-08T14:05:13;98.03;;;7.23;;
5221;SDS011;2630;52.036;8.514;2023-08-08T14:07:40;124.03;;;10.10;;
5221;SDS011;2630;52.036;8.514;2023-08-08T14:10:06;92.57;;;6.80;;
5221;SDS011;2630;52.036;8.514;2023-08-08T14:12:34;85.27;;;6.27;;
5221;SDS011;2630;52.036;8.514;2023-08-08T14:14:59;110.67;;;7.67;;
5221;SDS011;2630;52.036;8.514;2023-08-08T14:17:28;91.30;;;6.67;;
5221;SDS011;2630;52.036;8.514;2023-08-08T14:19:54;100.60;;;6.57;;
5221;SDS011;2630;52.036;8.514;2023-08-08T14:22:20;115.27;;;8.17;;
5221;SDS011;2630;52.036;8.514;2023-08-08T14:24:46;91.73;;;7.17;;
5221;SDS011;2630;52.036;8.514;2023-08-08T14:27:11;109.00;;;8.07;;
5221;SDS011;2630;52.036;8.514;2023-08-08T14:29:37;90.60;;;6.63;;
5221;SDS011;2630;52.036;8.514;2023-08-08T14:32:03;125.03;;;8.70;;
5221;SDS011;2630;52.036;8.514;2023-08-08T14:34:33;75.53;;;5.73;;
5221;SDS011;2630;52.036;8.514;2023-08-08T14:36:59;73.07;;;5.40;;
5221;SDS011;2630;52.036;8.514;2023-08-08T14:39:26;91.67;;;6.77;;
5221;SDS011;2630;52.036;8.514;2023-08-08T14:41:52;86.37;;;6.07;;
5221;SDS011;2630;52.036;8.514;2023-08-08T14:44:18;72.17;;;6.17;;
5221;SDS011;2630;52.036;8.514;2023-08-08T14:46:44;83.00;;;6.37;;
5221;SDS011;2630;52.036;8.514;2023-08-08T14:49:09;72.57;;;5.20;;
5221;SDS011;2630;52.036;8.514;2023-08-08T14:51:35;78.47;;;5.83;;
5221;SDS011;2630;52.036;8.514;2023-08-08T14:54:01;74.37;;;6.30;;